sensor_id;sensor_type;location;lat;lon;timestamp;temperature;humidity
26063;DHT22;13837;48.562;12.108;2022-12-15T00:01:10;-1.20;99.90
26063;DHT22;13837;48.562;12.108;2022-12-15T00:03:55;-1.20;99.90
26063;DHT22;13837;48.562;12.108;2022-12-15T00:06:40;-1.10;99.90
26063;DHT22;13837;48.562;12.108;2022-12-15T00:09:24;-1.10;99.90
26063;DHT22;13837;48.562;12.108;2022-12-15T00:12:09;-1.10;99.90
26063;DHT22;13837;48.562;12.108;2022-12-15T00:14:54;-1.10;99.90
26063;DHT22;13837;48.562;12.108;2022-12-15T00:17:38;-1.10;99.90
26063;DHT22;13837;48.562;12.108;2022-12-15T00:20:22;-1.10;99.90
26063;DHT22;13837;48.562;12.108;2022-12-15T00:23:08;-1.10;99.90
26063;DHT22;13837;48.562;12.108;2022-12-15T00:25:53;-1.10;99.90
26063;DHT22;13837;48.562;12.108;2022-12-15T00:28:37;-1.10;99.90
26063;DHT22;13837;48.562;12.108;2022-12-15T00:31:22;-1.00;99.90
26063;DHT22;13837;48.562;12.108;2022-12-15T00:34:08;-1.10;99.90
26063;DHT22;13837;48.562;12.108;2022-12-15T00:36:52;-1.20;99.90
26063;DHT22;13837;48.562;12.108;2022-12-15T00:39:37;-1.30;99.90
26063;DHT22;13837;48.562;12.108;2022-12-15T00:42:03;-1.20;99.90
26063;DHT22;13837;48.562;12.108;2022-12-15T00:44:29;-1.20;99.90
26063;DHT22;13837;48.562;12.108;2022-12-15T00:46:55;-1.10;99.90
26063;DHT22;13837;48.562;12.108;2022-12-15T00:49:22;-1.00;99.90
26063;DHT22;13837;48.562;12.108;2022-12-15T00:52:07;-1.00;99.90
26063;DHT22;13837;48.562;12.108;2022-12-15T00:54:52;-1.20;99.90
26063;DHT22;13837;48.562;12.108;2022-12-15T00:57:37;-1.20;99.90
26063;DHT22;13837;48.562;12.108;2022-12-15T01:00:22;-1.10;99.90
26063;DHT22;13837;48.562;12.108;2022-12-15T01:03:15;-1.10;99.90
26063;DHT22;13837;48.562;12.108;2022-12-15T01:06:00;-1.10;99.90
26063;DHT22;13837;48.562;12.108;2022-12-15T01:08:47;-1.10;99.90
26063;DHT22;13837;48.562;12.108;2022-12-15T01:11:32;-1.30;99.90
26063;DHT22;13837;48.562;12.108;2022-12-15T01:14:19;-1.60;99.90
26063;DHT22;13837;48.562;12.108;2022-12-15T01:17:03;-1.60;99.90
26063;DHT22;13837;48.562;12.108;2022-12-15T01:19:48;-1.70;99.90
26063;DHT22;13837;48.562;12.108;2022-12-15T01:22:38;-1.60;99.90
26063;DHT22;13837;48.562;12.108;2022-12-15T01:25:09;-1.70;99.90
26063;DHT22;13837;48.562;12.108;2022-12-15T01:27:35;-1.70;99.90
26063;DHT22;13837;48.562;12.108;2022-12-15T01:30:01;-1.90;99.90
26063;DHT22;13837;48.562;12.108;2022-12-15T01:32:28;-2.00;99.90
26063;DHT22;13837;48.562;12.108;2022-12-15T01:34:54;-1.90;99.90
26063;DHT22;13837;48.562;12.108;2022-12-15T01:37:20;-1.80;99.90
26063;DHT22;13837;48.562;12.108;2022-12-15T01:39:46;-1.70;99.90
26063;DHT22;13837;48.562;12.108;2022-12-15T01:42:31;-1.60;99.90
26063;DHT22;13837;48.562;12.108;2022-12-15T01:47:59;-1.70;99.90
26063;DHT22;13837;48.562;12.108;2022-12-15T01:50:27;-1.80;99.90
26063;DHT22;13837;48.562;12.108;2022-12-15T01:52:54;-1.90;99.90
26063;DHT22;13837;48.562;12.108;2022-12-15T01:55:21;-1.90;99.90
26063;DHT22;13837;48.562;12.108;2022-12-15T01:57:50;-1.80;99.90
26063;DHT22;13837;48.562;12.108;2022-12-15T02:00:16;-1.80;99.90
26063;DHT22;13837;48.562;12.108;2022-12-15T02:02:44;-1.80;99.90
26063;DHT22;13837;48.562;12.108;2022-12-15T02:05:10;-1.80;99.90
26063;DHT22;13837;48.562;12.108;2022-12-15T02:07:36;-1.80;99.90
26063;DHT22;13837;48.562;12.108;2022-12-15T02:10:04;-1.80;99.90
26063;DHT22;13837;48.562;12.108;2022-12-15T02:12:52;-1.80;99.90
26063;DHT22;13837;48.562;12.108;2022-12-15T02:15:38;-1.90;99.90
26063;DHT22;13837;48.562;12.108;2022-12-15T02:32:03;-1.80;99.90
26063;DHT22;13837;48.562;12.108;2022-12-15T02:37:16;-1.80;99.90
26063;DHT22;13837;48.562;12.108;2022-12-15T02:39:43;-1.80;99.90
26063;DHT22;13837;48.562;12.108;2022-12-15T02:42:12;-1.70;99.90
26063;DHT22;13837;48.562;12.108;2022-12-15T02:44:49;-1.70;99.90
26063;DHT22;13837;48.562;12.108;2022-12-15T02:55:42;-1.70;99.90
26063;DHT22;13837;48.562;12.108;2022-12-15T02:58:26;-1.80;99.90
26063;DHT22;13837;48.562;12.108;2022-12-15T03:03:41;-1.60;99.90
26063;DHT22;13837;48.562;12.108;2022-12-15T03:06:08;-1.70;99.90
26063;DHT22;13837;48.562;12.108;2022-12-15T03:08:34;-1.80;99.90
26063;DHT22;13837;48.562;12.108;2022-12-15T03:11:00;-1.70;99.90
26063;DHT22;13837;48.562;12.108;2022-12-15T03:13:26;-1.90;99.90
26063;DHT22;13837;48.562;12.108;2022-12-15T03:15:52;-1.80;99.90
26063;DHT22;13837;48.562;12.108;2022-12-15T03:18:21;-1.80;99.90
26063;DHT22;13837;48.562;12.108;2022-12-15T03:20:49;-1.90;99.90
26063;DHT22;13837;48.562;12.108;2022-12-15T03:23:14;-2.00;99.90
26063;DHT22;13837;48.562;12.108;2022-12-15T03:25:42;-1.90;99.90
26063;DHT22;13837;48.562;12.108;2022-12-15T03:28:08;-1.90;99.90
26063;DHT22;13837;48.562;12.108;2022-12-15T03:30:34;-1.90;99.90
26063;DHT22;13837;48.562;12.108;2022-12-15T03:32:59;-1.80;99.90
26063;DHT22;13837;48.562;12.108;2022-12-15T03:35:25;-1.70;99.90
26063;DHT22;13837;48.562;12.108;2022-12-15T03:37:51;-1.70;99.90
26063;DHT22;13837;48.562;12.108;2022-12-15T03:40:16;-1.70;99.90
26063;DHT22;13837;48.562;12.108;2022-12-15T03:42:45;-1.60;99.90
26063;DHT22;13837;48.562;12.108;2022-12-15T03:45:21;-1.60;99.90
26063;DHT22;13837;48.562;12.108;2022-12-15T03:47:48;-1.50;99.90
26063;DHT22;13837;48.562;12.108;2022-12-15T03:50:16;-1.50;99.90
26063;DHT22;13837;48.562;12.108;2022-12-15T03:52:42;-1.60;99.90
26063;DHT22;13837;48.562;12.108;2022-12-15T03:55:09;-1.50;99.90
26063;DHT22;13837;48.562;12.108;2022-12-15T03:57:35;-1.40;99.90
26063;DHT22;13837;48.562;12.108;2022-12-15T04:00:00;-1.40;99.90
26063;DHT22;13837;48.562;12.108;2022-12-15T04:02:26;-1.30;99.90
26063;DHT22;13837;48.562;12.108;2022-12-15T04:04:52;-1.30;99.90
26063;DHT22;13837;48.562;12.108;2022-12-15T04:07:18;-1.20;99.90
26063;DHT22;13837;48.562;12.108;2022-12-15T04:09:43;-1.10;99.90
26063;DHT22;13837;48.562;12.108;2022-12-15T04:12:12;-1.20;99.90
26063;DHT22;13837;48.562;12.108;2022-12-15T04:14:38;-1.20;99.90
26063;DHT22;13837;48.562;12.108;2022-12-15T04:17:10;-1.20;99.90
26063;DHT22;13837;48.562;12.108;2022-12-15T04:19:36;-1.30;99.90
26063;DHT22;13837;48.562;12.108;2022-12-15T04:22:21;-1.30;99.90
26063;DHT22;13837;48.562;12.108;2022-12-15T04:24:46;-1.20;99.90
26063;DHT22;13837;48.562;12.108;2022-12-15T04:27:31;-1.20;99.90
26063;DHT22;13837;48.562;12.108;2022-12-15T04:30:15;-1.20;99.90
26063;DHT22;13837;48.562;12.108;2022-12-15T04:33:00;-1.20;99.90
26063;DHT22;13837;48.562;12.108;2022-12-15T04:35:46;-1.20;99.90
26063;DHT22;13837;48.562;12.108;2022-12-15T04:38:31;-1.30;99.90
26063;DHT22;13837;48.562;12.108;2022-12-15T04:41:16;-1.30;99.90
26063;DHT22;13837;48.562;12.108;2022-12-15T04:44:02;-1.30;99.90
26063;DHT22;13837;48.562;12.108;2022-12-15T04:46:46;-1.30;99.90
26063;DHT22;13837;48.562;12.108;2022-12-15T04:49:30;-1.30;99.90
26063;DHT22;13837;48.562;12.108;2022-12-15T04:52:15;-1.40;99.90
26063;DHT22;13837;48.562;12.108;2022-12-15T04:54:59;-1.40;99.90
26063;DHT22;13837;48.562;12.108;2022-12-15T04:57:43;-1.40;99.90
26063;DHT22;13837;48.562;12.108;2022-12-15T05:00:27;-1.40;99.90
26063;DHT22;13837;48.562;12.108;2022-12-15T05:03:11;-1.40;99.90
26063;DHT22;13837;48.562;12.108;2022-12-15T05:05:56;-1.40;99.90
26063;DHT22;13837;48.562;12.108;2022-12-15T05:08:41;-1.40;99.90
26063;DHT22;13837;48.562;12.108;2022-12-15T05:11:25;-1.40;99.90
26063;DHT22;13837;48.562;12.108;2022-12-15T05:14:09;-1.40;99.90
26063;DHT22;13837;48.562;12.108;2022-12-15T05:16:54;-1.30;99.90
26063;DHT22;13837;48.562;12.108;2022-12-15T05:19:38;-1.30;99.90
26063;DHT22;13837;48.562;12.108;2022-12-15T05:22:22;-1.40;99.90
26063;DHT22;13837;48.562;12.108;2022-12-15T05:25:07;-1.50;99.90
26063;DHT22;13837;48.562;12.108;2022-12-15T05:27:51;-1.50;99.90
26063;DHT22;13837;48.562;12.108;2022-12-15T05:30:35;-1.50;99.90
26063;DHT22;13837;48.562;12.108;2022-12-15T05:33:20;-1.40;99.90
26063;DHT22;13837;48.562;12.108;2022-12-15T05:35:45;-1.40;99.90
26063;DHT22;13837;48.562;12.108;2022-12-15T05:38:11;-1.60;99.90
26063;DHT22;13837;48.562;12.108;2022-12-15T05:40:37;-1.70;99.90
26063;DHT22;13837;48.562;12.108;2022-12-15T05:43:02;-1.60;99.90
26063;DHT22;13837;48.562;12.108;2022-12-15T05:45:28;-1.60;99.90
26063;DHT22;13837;48.562;12.108;2022-12-15T05:47:54;-1.50;99.90
26063;DHT22;13837;48.562;12.108;2022-12-15T05:50:21;-1.40;99.90
26063;DHT22;13837;48.562;12.108;2022-12-15T05:52:47;-1.40;99.90
26063;DHT22;13837;48.562;12.108;2022-12-15T05:55:17;-1.40;99.90
26063;DHT22;13837;48.562;12.108;2022-12-15T05:57:45;-1.40;99.90
26063;DHT22;13837;48.562;12.108;2022-12-15T06:00:14;-1.50;99.90
26063;DHT22;13837;48.562;12.108;2022-12-15T06:02:40;-1.50;99.90
26063;DHT22;13837;48.562;12.108;2022-12-15T06:05:06;-1.60;99.90
26063;DHT22;13837;48.562;12.108;2022-12-15T06:07:33;-1.60;99.90
26063;DHT22;13837;48.562;12.108;2022-12-15T06:09:58;-1.60;99.90
26063;DHT22;13837;48.562;12.108;2022-12-15T06:12:24;-1.60;99.90
26063;DHT22;13837;48.562;12.108;2022-12-15T06:14:51;-1.60;99.90
26063;DHT22;13837;48.562;12.108;2022-12-15T06:17:17;-1.60;99.90
26063;DHT22;13837;48.562;12.108;2022-12-15T06:19:43;-1.60;99.90
26063;DHT22;13837;48.562;12.108;2022-12-15T06:22:08;-1.60;99.90
26063;DHT22;13837;48.562;12.108;2022-12-15T06:24:35;-1.60;99.90
26063;DHT22;13837;48.562;12.108;2022-12-15T06:27:00;-1.70;99.90
26063;DHT22;13837;48.562;12.108;2022-12-15T06:29:26;-1.90;99.90
26063;DHT22;13837;48.562;12.108;2022-12-15T06:31:52;-1.90;99.90
26063;DHT22;13837;48.562;12.108;2022-12-15T06:34:17;-1.80;99.90
26063;DHT22;13837;48.562;12.108;2022-12-15T06:36:43;-1.70;99.90
26063;DHT22;13837;48.562;12.108;2022-12-15T06:39:12;-1.60;99.90
26063;DHT22;13837;48.562;12.108;2022-12-15T06:41:39;-1.60;99.90
26063;DHT22;13837;48.562;12.108;2022-12-15T06:44:06;-1.50;99.90
26063;DHT22;13837;48.562;12.108;2022-12-15T06:46:35;-1.60;99.90
26063;DHT22;13837;48.562;12.108;2022-12-15T06:49:01;-1.50;99.90
26063;DHT22;13837;48.562;12.108;2022-12-15T06:51:27;-1.50;99.90
26063;DHT22;13837;48.562;12.108;2022-12-15T06:53:53;-1.50;99.90
26063;DHT22;13837;48.562;12.108;2022-12-15T06:58:47;-1.50;99.90
26063;DHT22;13837;48.562;12.108;2022-12-15T07:01:14;-1.40;99.90
26063;DHT22;13837;48.562;12.108;2022-12-15T07:03:40;-1.40;99.90
26063;DHT22;13837;48.562;12.108;2022-12-15T07:06:09;-1.40;99.90
26063;DHT22;13837;48.562;12.108;2022-12-15T07:08:35;-1.40;99.90
26063;DHT22;13837;48.562;12.108;2022-12-15T07:11:05;-1.40;99.90
26063;DHT22;13837;48.562;12.108;2022-12-15T07:13:32;-1.30;99.90
26063;DHT22;13837;48.562;12.108;2022-12-15T07:15:58;-1.40;99.90
26063;DHT22;13837;48.562;12.108;2022-12-15T07:18:24;-1.40;99.90
26063;DHT22;13837;48.562;12.108;2022-12-15T07:20:50;-1.40;99.90
26063;DHT22;13837;48.562;12.108;2022-12-15T07:23:16;-1.40;99.90
26063;DHT22;13837;48.562;12.108;2022-12-15T07:25:42;-1.40;99.90
26063;DHT22;13837;48.562;12.108;2022-12-15T07:28:08;-1.40;99.90
26063;DHT22;13837;48.562;12.108;2022-12-15T07:30:34;-1.40;99.90
26063;DHT22;13837;48.562;12.108;2022-12-15T07:33:00;-1.50;99.90
26063;DHT22;13837;48.562;12.108;2022-12-15T07:35:26;-1.50;99.90
26063;DHT22;13837;48.562;12.108;2022-12-15T07:37:52;-1.60;99.90
26063;DHT22;13837;48.562;12.108;2022-12-15T07:40:18;-1.50;99.90
26063;DHT22;13837;48.562;12.108;2022-12-15T07:42:43;-1.60;99.90
26063;DHT22;13837;48.562;12.108;2022-12-15T07:45:09;-1.60;99.90
26063;DHT22;13837;48.562;12.108;2022-12-15T07:47:35;-1.60;99.90
26063;DHT22;13837;48.562;12.108;2022-12-15T07:50:02;-1.50;99.90
26063;DHT22;13837;48.562;12.108;2022-12-15T07:52:28;-1.60;99.90
26063;DHT22;13837;48.562;12.108;2022-12-15T07:54:55;-1.60;99.90
26063;DHT22;13837;48.562;12.108;2022-12-15T07:57:21;-1.60;99.90
26063;DHT22;13837;48.562;12.108;2022-12-15T07:59:49;-1.50;99.90
26063;DHT22;13837;48.562;12.108;2022-12-15T08:02:15;-1.50;99.90
26063;DHT22;13837;48.562;12.108;2022-12-15T08:04:40;-1.50;99.90
26063;DHT22;13837;48.562;12.108;2022-12-15T08:07:07;-1.60;99.90
26063;DHT22;13837;48.562;12.108;2022-12-15T08:09:36;-1.50;99.90
26063;DHT22;13837;48.562;12.108;2022-12-15T08:12:02;-1.40;99.90
26063;DHT22;13837;48.562;12.108;2022-12-15T08:14:28;-1.40;99.90
26063;DHT22;13837;48.562;12.108;2022-12-15T08:16:54;-1.30;99.90
26063;DHT22;13837;48.562;12.108;2022-12-15T08:19:20;-1.40;99.90
26063;DHT22;13837;48.562;12.108;2022-12-15T08:21:46;-1.40;99.90
26063;DHT22;13837;48.562;12.108;2022-12-15T08:24:12;-1.50;99.90
26063;DHT22;13837;48.562;12.108;2022-12-15T08:26:39;-1.40;99.90
26063;DHT22;13837;48.562;12.108;2022-12-15T08:29:07;-1.40;99.90
26063;DHT22;13837;48.562;12.108;2022-12-15T08:31:33;-1.40;99.90
26063;DHT22;13837;48.562;12.108;2022-12-15T08:34:03;-1.30;99.90
26063;DHT22;13837;48.562;12.108;2022-12-15T08:36:29;-1.20;99.90
26063;DHT22;13837;48.562;12.108;2022-12-15T08:38:56;-1.20;99.90
26063;DHT22;13837;48.562;12.108;2022-12-15T08:41:24;-1.20;99.90
26063;DHT22;13837;48.562;12.108;2022-12-15T08:43:52;-1.20;99.90
26063;DHT22;13837;48.562;12.108;2022-12-15T08:46:23;-1.20;99.90
26063;DHT22;13837;48.562;12.108;2022-12-15T08:48:50;-1.20;99.90
26063;DHT22;13837;48.562;12.108;2022-12-15T08:51:18;-1.10;99.90
26063;DHT22;13837;48.562;12.108;2022-12-15T08:53:45;-1.10;99.90
26063;DHT22;13837;48.562;12.108;2022-12-15T08:56:13;-1.00;99.90
26063;DHT22;13837;48.562;12.108;2022-12-15T08:58:43;-1.00;99.90
26063;DHT22;13837;48.562;12.108;2022-12-15T09:01:18;-1.00;99.90
26063;DHT22;13837;48.562;12.108;2022-12-15T09:03:45;-0.90;99.90
26063;DHT22;13837;48.562;12.108;2022-12-15T09:06:20;-1.00;99.90
26063;DHT22;13837;48.562;12.108;2022-12-15T09:08:45;-0.90;99.90
26063;DHT22;13837;48.562;12.108;2022-12-15T09:11:11;-0.90;99.90
26063;DHT22;13837;48.562;12.108;2022-12-15T09:13:38;-0.90;99.90
26063;DHT22;13837;48.562;12.108;2022-12-15T09:16:06;-0.80;99.90
26063;DHT22;13837;48.562;12.108;2022-12-15T09:18:33;-0.70;99.90
26063;DHT22;13837;48.562;12.108;2022-12-15T09:21:06;-0.60;99.90
26063;DHT22;13837;48.562;12.108;2022-12-15T09:23:33;-0.60;99.90
26063;DHT22;13837;48.562;12.108;2022-12-15T09:26:00;-0.70;99.90
26063;DHT22;13837;48.562;12.108;2022-12-15T09:28:28;-0.50;99.90
26063;DHT22;13837;48.562;12.108;2022-12-15T09:30:54;-0.40;99.90
26063;DHT22;13837;48.562;12.108;2022-12-15T09:33:25;-0.20;99.90
26063;DHT22;13837;48.562;12.108;2022-12-15T09:35:51;0.00;99.90
26063;DHT22;13837;48.562;12.108;2022-12-15T09:38:17;0.10;99.90
26063;DHT22;13837;48.562;12.108;2022-12-15T09:40:43;0.10;99.90
26063;DHT22;13837;48.562;12.108;2022-12-15T09:43:20;0.20;99.90
26063;DHT22;13837;48.562;12.108;2022-12-15T09:45:58;0.30;99.90
26063;DHT22;13837;48.562;12.108;2022-12-15T09:48:37;0.30;99.90
26063;DHT22;13837;48.562;12.108;2022-12-15T09:51:09;0.10;99.90
26063;DHT22;13837;48.562;12.108;2022-12-15T09:53:37;-0.10;99.90
26063;DHT22;13837;48.562;12.108;2022-12-15T09:56:06;-0.10;99.90
26063;DHT22;13837;48.562;12.108;2022-12-15T09:58:57;0.00;99.90
26063;DHT22;13837;48.562;12.108;2022-12-15T10:01:37;-0.10;99.90
26063;DHT22;13837;48.562;12.108;2022-12-15T10:04:14;0.00;99.90
26063;DHT22;13837;48.562;12.108;2022-12-15T10:07:28;0.00;99.90
26063;DHT22;13837;48.562;12.108;2022-12-15T10:09:29;0.00;99.90
26063;DHT22;13837;48.562;12.108;2022-12-15T10:12:06;0.10;99.90
26063;DHT22;13837;48.562;12.108;2022-12-15T10:17:21;0.10;99.90
26063;DHT22;13837;48.562;12.108;2022-12-15T10:22:35;0.10;99.90
26063;DHT22;13837;48.562;12.108;2022-12-15T10:28:02;0.20;99.90
26063;DHT22;13837;48.562;12.108;2022-12-15T10:30:32;0.20;99.90
26063;DHT22;13837;48.562;12.108;2022-12-15T10:33:16;0.10;99.90
26063;DHT22;13837;48.562;12.108;2022-12-15T10:35:44;0.10;99.90
26063;DHT22;13837;48.562;12.108;2022-12-15T10:40:53;0.10;99.90
26063;DHT22;13837;48.562;12.108;2022-12-15T10:46:15;0.10;99.90
26063;DHT22;13837;48.562;12.108;2022-12-15T10:48:58;0.10;99.90
26063;DHT22;13837;48.562;12.108;2022-12-15T10:51:59;0.10;99.90
26063;DHT22;13837;48.562;12.108;2022-12-15T10:54:34;0.10;99.90
26063;DHT22;13837;48.562;12.108;2022-12-15T10:59:41;0.20;99.90
26063;DHT22;13837;48.562;12.108;2022-12-15T11:13:13;0.30;99.90
26063;DHT22;13837;48.562;12.108;2022-12-15T11:18:13;0.20;99.90
26063;DHT22;13837;48.562;12.108;2022-12-15T11:20:49;0.30;99.90
26063;DHT22;13837;48.562;12.108;2022-12-15T11:23:27;0.30;99.90
26063;DHT22;13837;48.562;12.108;2022-12-15T11:25:59;0.30;99.90
26063;DHT22;13837;48.562;12.108;2022-12-15T11:28:41;0.40;99.90
26063;DHT22;13837;48.562;12.108;2022-12-15T11:33:52;0.50;99.90
26063;DHT22;13837;48.562;12.108;2022-12-15T11:36:48;0.50;99.90
26063;DHT22;13837;48.562;12.108;2022-12-15T11:42:06;0.40;99.90
26063;DHT22;13837;48.562;12.108;2022-12-15T11:48:12;0.40;99.90
26063;DHT22;13837;48.562;12.108;2022-12-15T11:51:14;0.50;99.90
26063;DHT22;13837;48.562;12.108;2022-12-15T11:59:20;0.50;99.90
26063;DHT22;13837;48.562;12.108;2022-12-15T12:07:49;0.50;99.90
26063;DHT22;13837;48.562;12.108;2022-12-15T12:19:15;0.40;99.90
26063;DHT22;13837;48.562;12.108;2022-12-15T12:21:47;0.20;99.90
26063;DHT22;13837;48.562;12.108;2022-12-15T12:24:25;0.30;99.90
26063;DHT22;13837;48.562;12.108;2022-12-15T12:28:05;0.30;99.90
26063;DHT22;13837;48.562;12.108;2022-12-15T12:30:12;0.40;99.90
26063;DHT22;13837;48.562;12.108;2022-12-15T12:35:24;0.40;99.90
26063;DHT22;13837;48.562;12.108;2022-12-15T12:37:55;0.40;99.90
26063;DHT22;13837;48.562;12.108;2022-12-15T12:43:01;0.30;99.90
26063;DHT22;13837;48.562;12.108;2022-12-15T12:48:12;0.30;99.90
26063;DHT22;13837;48.562;12.108;2022-12-15T12:50:40;0.20;99.90
26063;DHT22;13837;48.562;12.108;2022-12-15T12:53:32;0.30;99.90
26063;DHT22;13837;48.562;12.108;2022-12-15T12:55:59;0.30;99.90
26063;DHT22;13837;48.562;12.108;2022-12-15T12:58:40;0.20;99.90
26063;DHT22;13837;48.562;12.108;2022-12-15T13:03:38;0.10;99.90
26063;DHT22;13837;48.562;12.108;2022-12-15T13:17:04;0.10;99.90
26063;DHT22;13837;48.562;12.108;2022-12-15T13:22:31;0.10;99.90
26063;DHT22;13837;48.562;12.108;2022-12-15T13:24:57;0.10;99.90
26063;DHT22;13837;48.562;12.108;2022-12-15T13:27:23;0.20;99.90
26063;DHT22;13837;48.562;12.108;2022-12-15T13:32:36;0.30;99.90
26063;DHT22;13837;48.562;12.108;2022-12-15T13:45:43;0.40;99.90
26063;DHT22;13837;48.562;12.108;2022-12-15T13:53:46;0.50;99.90
26063;DHT22;13837;48.562;12.108;2022-12-15T13:56:46;0.50;99.90
26063;DHT22;13837;48.562;12.108;2022-12-15T14:02:02;0.40;99.90
26063;DHT22;13837;48.562;12.108;2022-12-15T14:04:28;0.40;99.90
26063;DHT22;13837;48.562;12.108;2022-12-15T14:06:59;0.40;99.90
26063;DHT22;13837;48.562;12.108;2022-12-15T14:09:34;0.30;99.90
26063;DHT22;13837;48.562;12.108;2022-12-15T14:12:01;0.30;99.90
26063;DHT22;13837;48.562;12.108;2022-12-15T14:14:31;0.30;99.90
26063;DHT22;13837;48.562;12.108;2022-12-15T14:17:00;0.30;99.90
26063;DHT22;13837;48.562;12.108;2022-12-15T14:19:34;0.30;99.90
26063;DHT22;13837;48.562;12.108;2022-12-15T14:22:01;0.40;99.90
26063;DHT22;13837;48.562;12.108;2022-12-15T14:24:28;0.40;99.90
26063;DHT22;13837;48.562;12.108;2022-12-15T14:26:54;0.30;99.90
26063;DHT22;13837;48.562;12.108;2022-12-15T14:29:21;0.30;99.90
26063;DHT22;13837;48.562;12.108;2022-12-15T14:31:50;0.40;99.90
26063;DHT22;13837;48.562;12.108;2022-12-15T14:34:24;0.30;99.90
26063;DHT22;13837;48.562;12.108;2022-12-15T14:36:53;0.30;99.90
26063;DHT22;13837;48.562;12.108;2022-12-15T14:39:32;0.20;99.90
26063;DHT22;13837;48.562;12.108;2022-12-15T14:42:01;0.20;99.90
26063;DHT22;13837;48.562;12.108;2022-12-15T14:44:36;0.10;99.90
26063;DHT22;13837;48.562;12.108;2022-12-15T14:47:04;0.10;99.90
26063;DHT22;13837;48.562;12.108;2022-12-15T14:49:39;0.10;99.90
26063;DHT22;13837;48.562;12.108;2022-12-15T14:52:19;0.00;99.90
26063;DHT22;13837;48.562;12.108;2022-12-15T14:55:02;0.00;99.90
26063;DHT22;13837;48.562;12.108;2022-12-15T14:57:44;0.00;99.90
26063;DHT22;13837;48.562;12.108;2022-12-15T15:00:33;-0.10;99.90
26063;DHT22;13837;48.562;12.108;2022-12-15T15:05:42;-0.30;99.90
26063;DHT22;13837;48.562;12.108;2022-12-15T15:08:42;-0.30;99.90
26063;DHT22;13837;48.562;12.108;2022-12-15T15:13:56;-0.20;99.90
26063;DHT22;13837;48.562;12.108;2022-12-15T15:16:23;-0.20;99.90
26063;DHT22;13837;48.562;12.108;2022-12-15T15:18:52;-0.30;99.90
26063;DHT22;13837;48.562;12.108;2022-12-15T15:21:25;-0.30;99.90
26063;DHT22;13837;48.562;12.108;2022-12-15T15:26:45;-0.40;99.90
26063;DHT22;13837;48.562;12.108;2022-12-15T15:32:26;-0.40;99.90
26063;DHT22;13837;48.562;12.108;2022-12-15T15:34:52;-0.40;99.90
26063;DHT22;13837;48.562;12.108;2022-12-15T15:37:23;-0.40;99.90
26063;DHT22;13837;48.562;12.108;2022-12-15T15:39:50;-0.40;99.90
26063;DHT22;13837;48.562;12.108;2022-12-15T15:42:17;-0.40;99.90
26063;DHT22;13837;48.562;12.108;2022-12-15T15:44:43;-0.40;99.90
26063;DHT22;13837;48.562;12.108;2022-12-15T15:47:25;-0.50;99.90
26063;DHT22;13837;48.562;12.108;2022-12-15T15:49:57;-0.60;99.90
26063;DHT22;13837;48.562;12.108;2022-12-15T15:52:23;-0.50;99.90
26063;DHT22;13837;48.562;12.108;2022-12-15T15:54:49;-0.60;99.90
26063;DHT22;13837;48.562;12.108;2022-12-15T15:57:17;-0.60;99.90
26063;DHT22;13837;48.562;12.108;2022-12-15T15:59:44;-0.60;99.90
26063;DHT22;13837;48.562;12.108;2022-12-15T16:02:11;-0.60;99.90
26063;DHT22;13837;48.562;12.108;2022-12-15T16:04:42;-0.60;99.90
26063;DHT22;13837;48.562;12.108;2022-12-15T16:07:25;-0.60;99.90
26063;DHT22;13837;48.562;12.108;2022-12-15T16:09:52;-0.50;99.90
26063;DHT22;13837;48.562;12.108;2022-12-15T16:12:27;-0.60;99.90
26063;DHT22;13837;48.562;12.108;2022-12-15T16:14:54;-0.60;99.90
26063;DHT22;13837;48.562;12.108;2022-12-15T16:17:20;-0.60;99.90
26063;DHT22;13837;48.562;12.108;2022-12-15T16:19:46;-0.60;99.90
26063;DHT22;13837;48.562;12.108;2022-12-15T16:22:18;-0.60;99.90
26063;DHT22;13837;48.562;12.108;2022-12-15T16:24:45;-0.60;99.90
26063;DHT22;13837;48.562;12.108;2022-12-15T16:27:12;-0.60;99.90
26063;DHT22;13837;48.562;12.108;2022-12-15T16:29:45;-0.50;99.90
26063;DHT22;13837;48.562;12.108;2022-12-15T16:32:12;-0.60;99.90
26063;DHT22;13837;48.562;12.108;2022-12-15T16:34:38;-0.60;99.90
26063;DHT22;13837;48.562;12.108;2022-12-15T16:37:04;-0.60;99.90
26063;DHT22;13837;48.562;12.108;2022-12-15T16:39:34;-0.60;99.90
26063;DHT22;13837;48.562;12.108;2022-12-15T16:42:00;-0.60;99.90
26063;DHT22;13837;48.562;12.108;2022-12-15T16:44:27;-0.50;99.90
26063;DHT22;13837;48.562;12.108;2022-12-15T16:46:56;-0.50;99.90
26063;DHT22;13837;48.562;12.108;2022-12-15T16:49:23;-0.50;99.90
26063;DHT22;13837;48.562;12.108;2022-12-15T16:51:51;-0.50;99.90
26063;DHT22;13837;48.562;12.108;2022-12-15T16:54:23;-0.50;99.90
26063;DHT22;13837;48.562;12.108;2022-12-15T16:56:51;-0.40;99.90
26063;DHT22;13837;48.562;12.108;2022-12-15T16:59:22;-0.50;99.90
26063;DHT22;13837;48.562;12.108;2022-12-15T17:01:48;-0.40;99.90
26063;DHT22;13837;48.562;12.108;2022-12-15T17:04:14;-0.50;99.90
26063;DHT22;13837;48.562;12.108;2022-12-15T17:06:41;-0.50;99.90
26063;DHT22;13837;48.562;12.108;2022-12-15T17:09:09;-0.40;99.90
26063;DHT22;13837;48.562;12.108;2022-12-15T17:11:38;-0.40;99.90
26063;DHT22;13837;48.562;12.108;2022-12-15T17:14:04;-0.50;99.90
26063;DHT22;13837;48.562;12.108;2022-12-15T17:16:30;-0.60;99.90
26063;DHT22;13837;48.562;12.108;2022-12-15T17:18:56;-0.60;99.90
26063;DHT22;13837;48.562;12.108;2022-12-15T17:23:56;-0.50;99.90
26063;DHT22;13837;48.562;12.108;2022-12-15T17:26:29;-0.50;99.90
26063;DHT22;13837;48.562;12.108;2022-12-15T17:29:08;-0.50;99.90
26063;DHT22;13837;48.562;12.108;2022-12-15T17:31:37;-0.50;99.90
26063;DHT22;13837;48.562;12.108;2022-12-15T17:34:30;-0.50;99.90
26063;DHT22;13837;48.562;12.108;2022-12-15T17:37:02;-0.50;99.90
26063;DHT22;13837;48.562;12.108;2022-12-15T17:39:29;-0.50;99.90
26063;DHT22;13837;48.562;12.108;2022-12-15T17:41:55;-0.50;99.90
26063;DHT22;13837;48.562;12.108;2022-12-15T17:44:24;-0.50;99.90
26063;DHT22;13837;48.562;12.108;2022-12-15T17:46:50;-0.50;99.90
26063;DHT22;13837;48.562;12.108;2022-12-15T17:49:17;-0.50;99.90
26063;DHT22;13837;48.562;12.108;2022-12-15T17:51:43;-0.50;99.90
26063;DHT22;13837;48.562;12.108;2022-12-15T17:54:15;-0.50;99.90
26063;DHT22;13837;48.562;12.108;2022-12-15T17:56:42;-0.50;99.90
26063;DHT22;13837;48.562;12.108;2022-12-15T17:59:12;-0.60;99.90
26063;DHT22;13837;48.562;12.108;2022-12-15T18:01:38;-0.60;99.90
26063;DHT22;13837;48.562;12.108;2022-12-15T18:04:04;-0.60;99.90
26063;DHT22;13837;48.562;12.108;2022-12-15T18:06:30;-0.70;99.90
26063;DHT22;13837;48.562;12.108;2022-12-15T18:08:55;-0.60;99.90
26063;DHT22;13837;48.562;12.108;2022-12-15T18:11:21;-0.60;99.90
26063;DHT22;13837;48.562;12.108;2022-12-15T18:13:47;-0.60;99.90
26063;DHT22;13837;48.562;12.108;2022-12-15T18:16:13;-0.50;99.90
26063;DHT22;13837;48.562;12.108;2022-12-15T18:18:38;-0.50;99.90
26063;DHT22;13837;48.562;12.108;2022-12-15T18:21:15;-0.50;99.90